This is the latest recevied weather packets stored in our database for station/object I3RKE-10. If no packets are shown the sender has not sent any weather packets the latest 10 day(s).
| Time | Temp. | Humidity | Pressure | Rain* | Wind** | Luminosity | Snow |
|---|---|---|---|---|---|---|---|
| 1778084836 | 16.67° C | 74% | 1004 hPa | - | - | - | - |
| 1778083932 | 16.67° C | 74% | 1004 hPa | - | - | - | - |
| 1778083032 | 17.78° C | 69% | 1003.9 hPa | - | - | - | - |
| 1778082167 | 25.56° C | 50% | 1003.9 hPa | - | - | - | - |
| 1778082132 | 25.56° C | 50% | 1003.9 hPa | - | - | - | - |
| 1778081232 | 17.22° C | 77% | 1004 hPa | - | - | - | - |
| 1778080331 | 16.67° C | 77% | 1004 hPa | - | - | - | - |
| 1778079431 | 16.67° C | 84% | 1004 hPa | - | - | - | - |
| 1778078531 | 16.11° C | 87% | 1004.6 hPa | - | - | - | - |
| 1778077631 | 16.67° C | 84% | 1004.5 hPa | - | - | - | - |
| 1778076731 | 16.67° C | 83% | 1004.2 hPa | - | - | - | - |
| 1778075831 | 15.56° C | 87% | 1004.2 hPa | - | - | - | - |
| 1778074931 | 16.11° C | 88% | 1004.2 hPa | - | - | - | - |
| 1778074031 | 17.22° C | 77% | 1004.3 hPa | - | - | - | - |
| 1778073131 | 17.78° C | 77% | 1004.6 hPa | - | - | - | - |
| 1778072231 | 17.78° C | 78% | 1004.7 hPa | - | - | - | - |
| 1778071331 | 17.78° C | 79% | 1004.8 hPa | - | - | - | - |
| 1778070429 | 18.89° C | 76% | 1004.8 hPa | - | - | - | - |
| 1778069529 | 16.67° C | 81% | 1004.8 hPa | - | - | - | - |
| 1778068629 | 17.22° C | 82% | 1004.9 hPa | - | - | - | - |
| 1778067729 | 16.11° C | 85% | 1005.1 hPa | - | - | - | - |
| 1778066827 | 16.11° C | 83% | 1005.2 hPa | - | - | - | - |
| 1778065927 | 16.11° C | 85% | 1005.1 hPa | - | - | - | - |
| 1778065027 | 16.11° C | 84% | 1005.2 hPa | - | - | - | - |
| 1778064127 | 16.67° C | 83% | 1005.3 hPa | - | - | - | - |
* Rain since midnight (hover to see other rain measurements)
** Current wind speed in m/s (hover to see current wind gust speed)